createdAt,value
2018-03-15T00:02:03.669Z,69.17
2018-03-15T00:04:37.310Z,69.03
2018-03-15T00:07:10.990Z,68.99
2018-03-15T00:09:44.550Z,69.32
2018-03-15T00:12:18.306Z,69.39
2018-03-15T00:14:51.918Z,69.39
2018-03-15T00:17:25.458Z,69.32
2018-03-15T00:19:59.082Z,69.61
2018-03-15T00:22:32.671Z,69.86
2018-03-15T00:25:06.254Z,69.79
2018-03-15T00:27:40.027Z,70.08
2018-03-15T00:30:13.835Z,69.75
2018-03-15T00:32:47.483Z,70.07
2018-03-15T00:35:21.042Z,69.98
2018-03-15T00:37:54.651Z,70.30
2018-03-15T00:40:28.278Z,70.36
2018-03-15T00:43:01.855Z,70.26
2018-03-15T00:45:35.699Z,70.46
2018-03-15T00:48:09.190Z,70.75
2018-03-15T00:50:42.776Z,70.69
2018-03-15T00:53:16.483Z,70.85
2018-03-15T00:55:50.263Z,70.95
2018-03-15T00:58:23.854Z,70.73
2018-03-15T01:00:57.627Z,70.80
2018-03-15T01:03:31.318Z,70.60
2018-03-15T01:06:05.009Z,70.86
2018-03-15T01:08:38.777Z,70.72
2018-03-15T01:11:12.362Z,70.79
2018-03-15T01:13:46.015Z,70.62
2018-03-15T01:16:19.664Z,70.61
2018-03-15T01:18:53.231Z,70.73
2018-03-15T01:21:26.823Z,70.76
2018-03-15T01:24:00.511Z,70.60
2018-03-15T01:26:34.400Z,70.49
2018-03-15T01:29:07.970Z,70.48
2018-03-15T01:31:41.527Z,70.40
2018-03-15T01:34:15.186Z,70.45
2018-03-15T01:36:48.794Z,70.08
2018-03-15T01:39:22.550Z,70.21
2018-03-15T01:41:56.254Z,70.24
2018-03-15T01:44:30.011Z,70.38
2018-03-15T01:47:03.786Z,70.28
2018-03-15T01:49:37.427Z,70.60
2018-03-15T01:52:10.963Z,70.65
2018-03-15T01:54:44.644Z,70.30
2018-03-15T01:57:18.423Z,70.26
2018-03-15T01:59:52.021Z,70.11
2018-03-15T02:02:25.813Z,70.08
2018-03-15T02:04:59.475Z,70.02
2018-03-15T02:07:33.239Z,70.04
2018-03-15T02:10:07.074Z,69.86
2018-03-15T02:12:40.841Z,70.77
2018-03-15T02:15:14.523Z,70.52
2018-03-15T02:17:48.066Z,69.98
2018-03-15T02:20:21.715Z,69.91
2018-03-15T02:22:55.398Z,70.00
2018-03-15T02:25:28.991Z,69.90
2018-03-15T02:28:02.558Z,69.94
2018-03-15T02:30:36.416Z,69.78
2018-03-15T02:33:10.145Z,69.82
2018-03-15T02:35:43.865Z,69.81
2018-03-15T02:38:17.631Z,69.76
2018-03-15T02:40:51.346Z,69.80
2018-03-15T02:43:25.004Z,69.83
2018-03-15T02:45:58.719Z,69.64
2018-03-15T02:48:32.549Z,69.72
2018-03-15T02:51:06.330Z,69.72
2018-03-15T02:53:40.008Z,69.27
2018-03-15T02:56:13.588Z,69.40
2018-03-15T02:58:47.260Z,69.28
2018-03-15T03:01:20.869Z,69.75
2018-03-15T03:03:54.595Z,69.39
2018-03-15T03:06:28.277Z,69.15
2018-03-15T03:09:01.908Z,68.69
2018-03-15T03:11:35.529Z,68.45
2018-03-15T03:14:09.165Z,68.40
2018-03-15T03:16:42.815Z,68.30
2018-03-15T03:19:16.605Z,68.12
2018-03-15T03:21:50.326Z,68.10
2018-03-15T03:24:23.975Z,67.96
2018-03-15T03:26:57.544Z,68.07
2018-03-15T03:29:31.096Z,68.07
2018-03-15T03:32:04.692Z,67.96
2018-03-15T03:34:38.261Z,68.03
2018-03-15T03:37:11.845Z,68.16
2018-03-15T03:39:45.464Z,67.72
2018-03-15T03:42:19.003Z,67.87
2018-03-15T03:44:52.974Z,67.73
2018-03-15T03:47:27.013Z,68.01
2018-03-15T03:50:00.622Z,67.57
2018-03-15T03:52:34.241Z,67.84
2018-03-15T03:55:07.915Z,67.75
2018-03-15T03:57:41.483Z,67.76
2018-03-15T04:00:15.050Z,67.73
2018-03-15T04:02:49.134Z,67.76
2018-03-15T04:05:22.776Z,68.06
2018-03-15T04:07:56.473Z,68.19
2018-03-15T04:10:30.078Z,67.69
2018-03-15T04:13:03.829Z,67.77
2018-03-15T04:15:37.441Z,67.74
2018-03-15T04:18:11.082Z,67.46
2018-03-15T04:20:44.753Z,67.65
2018-03-15T04:23:18.425Z,68.04
2018-03-15T04:25:52.228Z,67.87
2018-03-15T04:28:25.753Z,67.83
2018-03-15T04:30:59.350Z,67.89
2018-03-15T04:33:32.953Z,67.78
2018-03-15T04:36:06.543Z,67.90
2018-03-15T04:38:40.125Z,67.89
2018-03-15T04:41:13.876Z,67.95
2018-03-15T04:43:47.558Z,68.07
2018-03-15T04:46:21.146Z,68.06
2018-03-15T04:48:54.829Z,68.29
2018-03-15T04:51:28.445Z,68.17
2018-03-15T04:54:02.109Z,67.89
2018-03-15T04:56:35.852Z,67.91
2018-03-15T04:59:09.452Z,67.62
2018-03-15T05:01:43.050Z,67.69
2018-03-15T05:04:16.709Z,67.42
2018-03-15T05:06:50.435Z,67.37
2018-03-15T05:09:24.013Z,67.40
2018-03-15T05:11:57.526Z,67.51
2018-03-15T05:14:31.254Z,67.57
2018-03-15T05:17:04.795Z,67.69
2018-03-15T05:19:38.426Z,67.66
2018-03-15T05:22:12.017Z,67.59
2018-03-15T05:24:45.660Z,67.71
2018-03-15T05:27:19.578Z,67.92
2018-03-15T05:29:53.170Z,67.75
2018-03-15T05:32:26.765Z,67.89
2018-03-15T05:35:00.462Z,67.71
2018-03-15T05:37:34.110Z,68.00
2018-03-15T05:40:07.751Z,67.89
2018-03-15T05:42:41.282Z,67.68
2018-03-15T05:45:14.816Z,67.57
2018-03-15T05:47:48.649Z,67.67
2018-03-15T05:50:22.294Z,67.57
2018-03-15T05:52:55.898Z,67.64
2018-03-15T05:55:29.496Z,67.25
2018-03-15T05:58:03.009Z,66.94
2018-03-15T06:00:36.680Z,66.88
2018-03-15T06:03:10.236Z,66.84
2018-03-15T06:05:44.018Z,67.05
2018-03-15T06:08:17.630Z,66.86
2018-03-15T06:10:51.409Z,66.73
2018-03-15T06:13:25.016Z,66.45
2018-03-15T06:15:58.698Z,66.09
2018-03-15T06:18:32.283Z,65.59
2018-03-15T06:21:05.882Z,65.68
2018-03-15T06:23:39.474Z,65.71
2018-03-15T06:26:13.022Z,65.45
2018-03-15T06:28:46.584Z,65.02
2018-03-15T06:31:20.204Z,65.10
2018-03-15T06:33:53.818Z,64.65
2018-03-15T06:36:27.533Z,64.41
2018-03-15T06:39:01.191Z,64.28
2018-03-15T06:41:34.707Z,64.15
2018-03-15T06:44:08.365Z,63.91
2018-03-15T06:46:41.998Z,64.14
2018-03-15T06:49:15.628Z,63.52
2018-03-15T06:51:49.078Z,62.86
2018-03-15T06:54:22.594Z,62.80
2018-03-15T06:56:56.175Z,62.90
2018-03-15T06:59:29.826Z,62.88
2018-03-15T07:02:03.391Z,62.51
2018-03-15T07:04:37.056Z,62.96
2018-03-15T07:07:10.738Z,61.37
2018-03-15T07:09:44.305Z,60.02
2018-03-15T07:12:17.984Z,55.49
2018-03-15T07:14:51.614Z,50.49
2018-03-15T07:17:25.334Z,46.29
2018-03-15T07:19:58.835Z,45.49
2018-03-15T07:22:32.622Z,45.78
2018-03-15T07:25:06.269Z,46.28
2018-03-15T07:27:39.789Z,46.41
2018-03-15T07:30:13.454Z,47.23
2018-03-15T07:32:47.014Z,47.67
2018-03-15T07:35:20.649Z,47.74
2018-03-15T07:37:54.209Z,44.52
2018-03-15T07:40:27.914Z,42.64
2018-03-15T07:43:01.448Z,39.68
2018-03-15T07:45:35.073Z,37.61
2018-03-15T07:48:08.630Z,38.58
2018-03-15T07:50:42.157Z,37.58
2018-03-15T07:53:16.084Z,37.43
2018-03-15T07:55:49.623Z,37.18
2018-03-15T07:58:23.440Z,36.62
2018-03-15T08:00:57.116Z,37.11
2018-03-15T08:03:30.704Z,36.78
2018-03-15T08:06:04.471Z,37.29
2018-03-15T08:08:38.110Z,37.05
2018-03-15T08:11:11.633Z,38.64
2018-03-15T08:13:45.232Z,39.67
2018-03-15T08:16:18.855Z,38.64
2018-03-15T08:18:52.488Z,40.45
2018-03-15T08:21:26.113Z,41.70
2018-03-15T08:23:59.670Z,41.12
2018-03-15T08:26:33.223Z,41.02
2018-03-15T08:29:06.846Z,41.75
2018-03-15T08:31:40.410Z,42.06
2018-03-15T08:34:14.068Z,43.26
2018-03-15T08:36:47.601Z,43.09
2018-03-15T08:39:21.229Z,44.15
2018-03-15T08:41:54.958Z,43.04
2018-03-15T08:44:28.552Z,43.50
2018-03-15T08:47:02.373Z,43.29
2018-03-15T08:49:35.914Z,43.18
2018-03-15T08:52:09.438Z,43.01
2018-03-15T08:54:43.080Z,43.60
2018-03-15T08:57:16.714Z,42.17
2018-03-15T08:59:50.246Z,41.74
2018-03-15T09:02:24.042Z,41.66
2018-03-15T09:04:57.611Z,41.08
2018-03-15T09:07:31.270Z,41.18
2018-03-15T09:10:05.054Z,40.71
2018-03-15T09:12:38.630Z,39.99
2018-03-15T09:15:12.772Z,39.63
2018-03-15T09:17:46.257Z,39.93
2018-03-15T09:20:19.954Z,38.78
2018-03-15T09:22:53.418Z,37.54
2018-03-15T09:25:27.296Z,37.58
2018-03-15T09:28:00.864Z,37.75
2018-03-15T09:30:34.735Z,38.42
2018-03-15T09:33:08.356Z,38.30
2018-03-15T09:35:41.981Z,39.58
2018-03-15T09:38:15.615Z,39.79
2018-03-15T09:40:49.365Z,39.36
2018-03-15T09:43:23.057Z,38.70
2018-03-15T09:45:56.869Z,39.36
2018-03-15T09:48:30.326Z,40.22
2018-03-15T09:51:04.138Z,40.79
2018-03-15T09:53:37.713Z,41.19
2018-03-15T09:56:11.480Z,41.98
2018-03-15T09:58:45.265Z,41.94
2018-03-15T10:01:19.119Z,42.14
2018-03-15T10:03:52.972Z,42.11
2018-03-15T10:06:26.622Z,41.44
2018-03-15T10:09:00.238Z,42.04
2018-03-15T10:11:33.790Z,41.24
2018-03-15T10:14:07.513Z,42.67
2018-03-15T10:16:41.192Z,41.79
2018-03-15T10:19:14.865Z,41.92
2018-03-15T10:21:48.727Z,41.72
2018-03-15T10:24:22.415Z,42.02
2018-03-15T10:26:56.200Z,41.50
2018-03-15T10:29:29.873Z,41.36
2018-03-15T10:32:03.665Z,41.89
2018-03-15T10:34:37.367Z,42.20
2018-03-15T10:37:11.179Z,42.32
2018-03-15T10:39:44.832Z,41.69
2018-03-15T10:42:18.356Z,41.83
2018-03-15T10:44:51.937Z,41.15
2018-03-15T10:47:25.630Z,42.05
2018-03-15T10:49:59.361Z,41.28
2018-03-15T10:52:33.146Z,41.71
2018-03-15T10:55:06.674Z,40.98
2018-03-15T10:57:40.226Z,40.41
2018-03-15T11:00:13.981Z,40.16
2018-03-15T11:02:48.220Z,40.04
2018-03-15T11:05:27.547Z,40.16
2018-03-15T11:08:07.005Z,38.92
2018-03-15T11:10:40.681Z,38.10
2018-03-15T11:13:14.338Z,38.04
2018-03-15T11:15:47.922Z,37.80
2018-03-15T11:18:21.645Z,37.37
2018-03-15T11:20:55.390Z,38.20
2018-03-15T11:23:28.913Z,38.55
2018-03-15T11:26:02.526Z,39.63
2018-03-15T11:28:36.261Z,39.74
2018-03-15T11:31:10.019Z,39.54
2018-03-15T11:33:43.485Z,39.36
2018-03-15T11:36:17.170Z,39.18
2018-03-15T11:38:50.750Z,39.96
2018-03-15T11:41:24.361Z,40.51
2018-03-15T11:43:58.152Z,40.53
2018-03-15T11:46:31.922Z,40.06
2018-03-15T11:49:05.645Z,39.24
2018-03-15T11:51:39.238Z,39.73
2018-03-15T11:54:13.047Z,40.04
2018-03-15T11:56:46.621Z,40.45
2018-03-15T11:59:20.453Z,40.67
2018-03-15T12:01:54.105Z,40.64
2018-03-15T12:04:27.864Z,39.81
2018-03-15T12:07:01.377Z,40.45
2018-03-15T12:09:35.149Z,40.91
2018-03-15T12:12:08.871Z,39.63
2018-03-15T12:14:42.440Z,39.62
2018-03-15T12:17:16.122Z,40.14
2018-03-15T12:19:49.746Z,39.98
2018-03-15T12:22:23.297Z,40.24
2018-03-15T12:24:56.805Z,39.70
2018-03-15T12:27:30.525Z,38.96
2018-03-15T12:30:04.282Z,39.44
2018-03-15T12:32:37.894Z,40.07
2018-03-15T12:35:11.399Z,40.19
2018-03-15T12:37:44.940Z,40.73
2018-03-15T12:40:18.491Z,41.04
2018-03-15T12:42:52.252Z,40.87
2018-03-15T12:45:26.002Z,40.92
2018-03-15T12:47:59.533Z,40.69
2018-03-15T12:50:33.189Z,41.25
2018-03-15T12:53:06.790Z,40.92
2018-03-15T12:55:40.634Z,40.51
2018-03-15T12:58:14.430Z,40.32
2018-03-15T13:00:48.091Z,40.60
2018-03-15T13:03:21.622Z,40.55
2018-03-15T13:05:55.274Z,40.02
2018-03-15T13:08:28.954Z,40.55
2018-03-15T13:11:02.613Z,40.22
2018-03-15T13:13:36.248Z,40.88
2018-03-15T13:16:09.902Z,41.26
2018-03-15T13:18:43.499Z,40.24
2018-03-15T13:21:17.280Z,39.74
2018-03-15T13:23:50.999Z,40.61
2018-03-15T13:26:24.782Z,41.45
2018-03-15T13:28:58.323Z,40.70
2018-03-15T13:31:31.854Z,40.26
2018-03-15T13:34:05.694Z,40.68
2018-03-15T13:36:39.330Z,40.77
2018-03-15T13:39:12.926Z,41.25
2018-03-15T13:41:46.478Z,41.28
2018-03-15T13:44:20.583Z,40.36
2018-03-15T13:46:54.268Z,41.44
2018-03-15T13:49:27.961Z,40.99
2018-03-15T13:52:01.730Z,41.95
2018-03-15T13:54:35.524Z,42.33
2018-03-15T13:57:09.084Z,41.65
2018-03-15T13:59:42.633Z,41.16
2018-03-15T14:02:16.198Z,41.82
2018-03-15T14:04:49.708Z,41.38
2018-03-15T14:07:23.189Z,41.73
2018-03-15T14:09:56.766Z,42.07
2018-03-15T14:12:30.368Z,41.94
2018-03-15T14:15:03.909Z,41.88
2018-03-15T14:17:37.620Z,41.64
2018-03-15T14:20:11.472Z,41.23
2018-03-15T14:22:44.970Z,42.00
2018-03-15T14:25:18.477Z,42.59
2018-03-15T14:27:52.020Z,42.82
2018-03-15T14:30:25.766Z,41.60
2018-03-15T14:32:59.570Z,41.66
2018-03-15T14:35:33.158Z,42.24
2018-03-15T14:38:06.804Z,42.63
2018-03-15T14:40:40.546Z,41.86
2018-03-15T14:43:14.178Z,41.99
2018-03-15T14:45:47.866Z,41.68
2018-03-15T14:48:21.417Z,42.09
2018-03-15T14:50:54.956Z,42.33
2018-03-15T14:53:28.500Z,42.09
2018-03-15T14:56:02.040Z,43.04
2018-03-15T14:58:35.646Z,42.57
2018-03-15T15:01:09.443Z,42.53
2018-03-15T15:03:42.994Z,42.47
2018-03-15T15:06:16.829Z,41.85
2018-03-15T15:08:50.486Z,42.40
2018-03-15T15:11:24.042Z,42.52
2018-03-15T15:13:57.901Z,43.46
2018-03-15T15:16:31.436Z,43.73
2018-03-15T15:19:05.064Z,42.50
2018-03-15T15:21:38.742Z,42.09
2018-03-15T15:24:12.451Z,42.09
2018-03-15T15:26:45.929Z,42.33
2018-03-15T15:29:19.514Z,42.50
2018-03-15T15:31:53.058Z,41.86
2018-03-15T15:34:26.765Z,42.38
2018-03-15T15:37:00.481Z,41.54
2018-03-15T15:39:34.088Z,41.54
2018-03-15T15:42:07.609Z,42.67
2018-03-15T15:44:41.231Z,41.55
2018-03-15T15:47:14.918Z,41.48
2018-03-15T15:49:48.460Z,41.96
2018-03-15T15:52:22.103Z,41.78
2018-03-15T15:54:55.921Z,42.90
2018-03-15T15:57:29.446Z,42.65
2018-03-15T16:00:03.147Z,42.83
2018-03-15T16:02:36.893Z,43.31
2018-03-15T16:05:10.398Z,41.85
2018-03-15T16:07:44.113Z,41.50
2018-03-15T16:10:17.915Z,42.34
2018-03-15T16:12:51.454Z,42.54
2018-03-15T16:15:25.206Z,43.05
2018-03-15T16:17:58.704Z,43.65
2018-03-15T16:20:32.280Z,42.89
2018-03-15T16:23:06.029Z,43.45
2018-03-15T16:25:39.791Z,43.41
2018-03-15T16:28:13.356Z,43.83
2018-03-15T16:30:46.873Z,42.93
2018-03-15T16:33:20.580Z,42.94
2018-03-15T16:35:54.226Z,43.35
2018-03-15T16:38:27.723Z,43.92
2018-03-15T16:41:01.477Z,44.12
2018-03-15T16:43:35.044Z,43.83
2018-03-15T16:46:08.812Z,43.98
2018-03-15T16:48:42.286Z,43.98
2018-03-15T16:51:15.860Z,44.28
2018-03-15T16:53:49.428Z,44.29
2018-03-15T16:56:22.934Z,44.11
2018-03-15T16:58:56.512Z,44.56
2018-03-15T17:01:30.256Z,44.84
2018-03-15T17:04:03.792Z,46.67
2018-03-15T17:06:37.514Z,44.66
2018-03-15T17:09:11.236Z,45.51
2018-03-15T17:11:45.305Z,45.04
2018-03-15T17:14:18.905Z,44.71
2018-03-15T17:16:52.514Z,44.52
2018-03-15T17:19:26.146Z,44.94
2018-03-15T17:21:59.710Z,45.12
2018-03-15T17:24:33.530Z,45.66
2018-03-15T17:33:17.993Z,45.47
2018-03-15T17:35:51.651Z,45.73
2018-03-15T17:38:25.449Z,46.07
2018-03-15T17:40:59.100Z,46.43
2018-03-15T17:43:32.618Z,46.91
2018-03-15T17:46:06.270Z,46.99
2018-03-15T17:48:39.935Z,46.52
2018-03-15T17:51:13.590Z,46.99
2018-03-15T17:53:47.169Z,46.58
2018-03-15T17:56:20.746Z,47.18
2018-03-15T17:58:54.357Z,46.80
2018-03-15T18:01:28.014Z,46.71
2018-03-15T18:04:01.639Z,46.66
2018-03-15T18:06:35.429Z,47.26
2018-03-15T18:09:09.005Z,47.38
2018-03-15T18:11:42.646Z,47.82
2018-03-15T18:14:16.250Z,47.43
2018-03-15T18:16:49.806Z,46.77
2018-03-15T18:19:23.409Z,47.59
2018-03-15T18:21:56.965Z,46.82
2018-03-15T18:24:30.518Z,46.80
2018-03-15T18:27:04.282Z,47.14
2018-03-15T18:29:38.082Z,47.00
2018-03-15T18:32:12.485Z,46.71
2018-03-15T18:34:46.024Z,46.64
2018-03-15T18:37:20.677Z,46.61
2018-03-15T18:39:54.230Z,47.06
2018-03-15T18:42:27.825Z,47.16
2018-03-15T18:45:01.410Z,47.47
2018-03-15T18:47:35.011Z,47.30
2018-03-15T18:50:08.498Z,47.65
2018-03-15T18:52:42.063Z,47.99
2018-03-15T18:55:15.594Z,48.36
2018-03-15T18:57:49.181Z,49.12
2018-03-15T19:00:22.960Z,52.55
2018-03-15T19:02:56.602Z,56.08
2018-03-15T19:05:30.188Z,53.90
2018-03-15T19:08:03.914Z,55.43
2018-03-15T19:10:37.506Z,56.98
2018-03-15T19:13:11.074Z,61.43
2018-03-15T19:15:44.862Z,61.99
2018-03-15T19:18:18.489Z,63.66
2018-03-15T19:20:52.092Z,67.95
2018-03-15T19:23:25.842Z,67.32
2018-03-15T19:25:59.382Z,68.90
2018-03-15T19:28:32.988Z,70.65
2018-03-15T19:31:06.894Z,71.54
2018-03-15T19:33:40.499Z,73.82
2018-03-15T19:36:14.265Z,74.90
2018-03-15T19:38:47.914Z,75.01
2018-03-15T19:41:21.669Z,77.08
2018-03-15T19:43:55.182Z,77.96
2018-03-15T19:46:28.868Z,77.91
2018-03-15T19:49:02.542Z,78.71
2018-03-15T19:51:36.119Z,80.64
2018-03-15T19:54:09.917Z,81.31
2018-03-15T19:56:43.643Z,82.69
2018-03-15T19:59:17.202Z,82.96
2018-03-15T20:01:50.918Z,82.62
2018-03-15T20:04:24.524Z,82.54
2018-03-15T20:06:58.087Z,83.54
2018-03-15T20:09:31.802Z,84.11
2018-03-15T20:12:05.646Z,83.65
2018-03-15T20:14:39.302Z,83.22
2018-03-15T20:17:26.832Z,83.04
2018-03-15T20:20:00.518Z,83.73
2018-03-15T20:22:39.786Z,83.57
2018-03-15T20:25:13.454Z,83.82
2018-03-15T20:27:53.017Z,84.13
2018-03-15T20:30:26.688Z,82.82
2018-03-15T20:33:06.065Z,84.76
2018-03-15T20:35:39.778Z,83.99
2018-03-15T20:38:13.361Z,83.05
2018-03-15T20:40:52.550Z,84.08
2018-03-15T20:43:26.231Z,84.42
2018-03-15T20:46:05.720Z,84.09
2018-03-15T20:48:45.283Z,84.12
2018-03-15T20:51:18.929Z,83.15
2018-03-15T20:53:52.622Z,84.21
2018-03-15T20:56:26.382Z,82.13
2018-03-15T20:58:59.924Z,82.36
2018-03-15T21:01:33.504Z,83.53
2018-03-15T21:04:07.105Z,82.77
2018-03-15T21:06:40.883Z,83.71
2018-03-15T21:09:14.434Z,84.12
2018-03-15T21:11:48.145Z,84.32
2018-03-15T21:14:21.954Z,84.11
2018-03-15T21:16:55.610Z,82.91
2018-03-15T21:19:29.189Z,83.52
2018-03-15T21:22:02.900Z,83.38
2018-03-15T21:24:36.545Z,82.83
2018-03-15T21:27:10.413Z,82.68
2018-03-15T21:29:43.914Z,82.27
2018-03-15T21:32:17.660Z,82.29
2018-03-15T21:34:51.184Z,82.49
2018-03-15T21:37:24.852Z,82.80
2018-03-15T21:39:58.437Z,81.51
2018-03-15T21:42:32.023Z,81.68
2018-03-15T21:45:05.582Z,81.38
2018-03-15T21:47:39.205Z,82.39
2018-03-15T21:50:12.985Z,81.93
2018-03-15T21:52:46.579Z,82.17
2018-03-15T21:55:20.192Z,82.12
2018-03-15T21:57:53.948Z,82.68
2018-03-15T22:00:27.758Z,82.04
2018-03-15T22:03:01.801Z,81.28
2018-03-15T22:05:35.412Z,82.07
2018-03-15T22:08:09.176Z,81.56
2018-03-15T22:10:42.998Z,81.94
2018-03-15T22:13:16.584Z,82.19
2018-03-15T22:15:50.349Z,82.48
2018-03-15T22:18:23.988Z,82.47
2018-03-15T22:20:57.668Z,81.78
2018-03-15T22:23:31.262Z,81.45
2018-03-15T22:26:04.887Z,80.85
2018-03-15T22:28:38.992Z,81.63
2018-03-15T22:31:12.539Z,81.42
2018-03-15T22:33:46.253Z,81.68
2018-03-15T22:36:20.049Z,81.91
2018-03-15T22:38:53.653Z,81.79
2018-03-15T22:41:27.195Z,82.38
2018-03-15T22:44:00.827Z,81.39
2018-03-15T22:46:34.444Z,81.63
2018-03-15T22:49:08.066Z,81.57
2018-03-15T22:51:41.692Z,82.61
2018-03-15T22:54:15.548Z,81.60
2018-03-15T22:56:49.239Z,81.46
2018-03-15T22:59:23.032Z,82.20
2018-03-15T23:01:56.803Z,81.83
2018-03-15T23:04:30.412Z,82.85
2018-03-15T23:07:04.225Z,82.52
2018-03-15T23:09:37.854Z,82.38
2018-03-15T23:12:11.550Z,82.26
2018-03-15T23:14:45.179Z,83.08
2018-03-15T23:17:18.765Z,82.46
2018-03-15T23:19:52.447Z,82.42
2018-03-15T23:22:25.958Z,83.15
2018-03-15T23:24:59.774Z,82.91
2018-03-15T23:27:33.468Z,82.61
2018-03-15T23:30:07.000Z,83.25
2018-03-15T23:32:40.703Z,83.32
2018-03-15T23:35:14.281Z,83.53
2018-03-15T23:37:47.970Z,83.41
2018-03-15T23:40:21.993Z,83.70
2018-03-15T23:42:56.155Z,84.05
2018-03-15T23:45:29.864Z,83.62
2018-03-15T23:48:03.452Z,84.05
2018-03-15T23:50:37.323Z,84.75
2018-03-15T23:53:11.080Z,84.58
2018-03-15T23:55:44.662Z,84.28
2018-03-15T23:58:18.538Z,84.19
